createdAt,value
2023-12-05T00:00:21.801Z,2.98
2023-12-05T00:02:24.341Z,3.08
2023-12-05T00:04:26.964Z,3.10
2023-12-05T00:06:29.657Z,2.97
2023-12-05T00:08:32.065Z,2.91
2023-12-05T00:10:34.573Z,2.87
2023-12-05T00:12:37.358Z,2.91
2023-12-05T00:14:39.839Z,2.88
2023-12-05T00:16:42.509Z,2.95
2023-12-05T00:18:48.225Z,2.96
2023-12-05T00:20:50.738Z,2.94
2023-12-05T00:22:53.316Z,2.94
2023-12-05T00:24:55.947Z,2.98
2023-12-05T00:26:58.505Z,2.90
2023-12-05T00:29:01.147Z,2.84
2023-12-05T00:31:03.796Z,2.93
2023-12-05T00:33:06.346Z,2.93
2023-12-05T00:35:09.141Z,2.88
2023-12-05T00:37:11.735Z,2.89
2023-12-05T00:39:14.101Z,2.83
2023-12-05T00:41:16.709Z,2.82
2023-12-05T00:43:19.266Z,2.83
2023-12-05T00:45:22.390Z,2.78
2023-12-05T00:47:24.930Z,2.79
2023-12-05T00:49:27.748Z,2.71
2023-12-05T00:51:30.262Z,2.72
2023-12-05T00:53:32.756Z,2.76
2023-12-05T00:55:37.182Z,2.80
2023-12-05T00:57:39.934Z,2.78
2023-12-05T00:59:42.374Z,2.79
2023-12-05T01:01:45.081Z,2.75
2023-12-05T01:03:48.144Z,2.77
2023-12-05T01:05:50.871Z,2.66
2023-12-05T01:07:53.371Z,2.71
2023-12-05T01:09:56.464Z,2.73
2023-12-05T01:11:59.589Z,2.70
2023-12-05T01:14:02.099Z,2.55
2023-12-05T01:16:05.687Z,2.59
2023-12-05T01:18:08.221Z,2.74
2023-12-05T01:20:13.892Z,2.71
2023-12-05T01:22:16.367Z,2.63
2023-12-05T01:24:18.868Z,2.64
2023-12-05T01:26:21.413Z,2.75
2023-12-05T01:28:23.879Z,2.79
2023-12-05T01:30:26.618Z,2.67
2023-12-05T01:32:29.263Z,2.73
2023-12-05T01:34:32.667Z,2.74
2023-12-05T01:36:35.320Z,2.77
2023-12-05T01:38:37.916Z,2.77
2023-12-05T01:40:40.447Z,2.84
2023-12-05T01:42:43.174Z,2.84
2023-12-05T01:44:45.838Z,2.80
2023-12-05T01:46:48.546Z,2.71
2023-12-05T01:48:51.395Z,2.79
2023-12-05T01:50:55.344Z,2.86
2023-12-05T01:53:01.140Z,2.83
2023-12-05T01:55:03.988Z,2.90
2023-12-05T01:57:08.154Z,2.95
2023-12-05T01:59:11.379Z,2.90
2023-12-05T02:01:17.073Z,2.79
2023-12-05T02:03:20.150Z,2.91
2023-12-05T02:05:23.424Z,2.99
2023-12-05T02:07:26.572Z,2.98
2023-12-05T02:09:29.242Z,2.99
2023-12-05T02:11:34.073Z,2.97
2023-12-05T02:13:36.589Z,2.91
2023-12-05T02:15:39.314Z,2.93
2023-12-05T02:18:13.152Z,2.87
2023-12-05T02:20:21.930Z,2.98
2023-12-05T02:22:36.249Z,3.00
2023-12-05T02:24:57.111Z,3.00
2023-12-05T02:27:32.470Z,2.97
2023-12-05T02:29:35.066Z,2.90
2023-12-05T02:31:37.499Z,2.91
2023-12-05T02:33:41.225Z,2.96
2023-12-05T02:35:44.035Z,2.88
2023-12-05T02:38:12.141Z,2.94
2023-12-05T02:40:18.634Z,3.03
2023-12-05T02:42:24.723Z,2.87
2023-12-05T02:44:42.476Z,2.89
2023-12-05T02:46:46.554Z,2.92
2023-12-05T02:48:51.612Z,2.93
2023-12-05T02:50:54.629Z,2.94
2023-12-05T02:52:57.908Z,2.99
2023-12-05T02:55:00.327Z,3.03
2023-12-05T02:57:03.515Z,3.05
2023-12-05T02:59:06.017Z,3.02
2023-12-05T03:01:09.086Z,2.98
2023-12-05T03:03:11.685Z,3.02
2023-12-05T03:05:14.655Z,2.86
2023-12-05T03:07:17.046Z,2.90
2023-12-05T03:09:19.685Z,2.98
2023-12-05T03:11:22.193Z,3.01
2023-12-05T03:13:24.749Z,3.01
2023-12-05T03:15:27.302Z,2.91
2023-12-05T03:17:29.862Z,2.88
2023-12-05T03:19:32.465Z,2.95
2023-12-05T03:21:35.783Z,3.00
2023-12-05T03:23:38.486Z,3.01
2023-12-05T03:25:41.251Z,3.00
2023-12-05T03:27:43.986Z,3.05
2023-12-05T03:29:46.545Z,3.04
2023-12-05T03:31:49.123Z,3.04
2023-12-05T03:33:51.666Z,3.00
2023-12-05T03:35:54.234Z,2.94
2023-12-05T03:37:57.388Z,3.00
2023-12-05T03:40:00.314Z,2.96
2023-12-05T03:42:02.799Z,3.03
2023-12-05T03:44:05.585Z,3.09
2023-12-05T03:46:08.398Z,3.09
2023-12-05T03:48:11.072Z,3.00
2023-12-05T03:50:13.612Z,3.01
2023-12-05T03:52:16.242Z,2.93
2023-12-05T03:54:18.676Z,3.03
2023-12-05T03:56:21.290Z,3.12
2023-12-05T03:58:23.671Z,3.13
2023-12-05T04:00:26.756Z,3.13
2023-12-05T04:02:29.269Z,3.16
2023-12-05T04:04:32.716Z,3.09
2023-12-05T04:06:35.235Z,3.11
2023-12-05T04:08:37.864Z,3.01
2023-12-05T04:10:40.422Z,3.12
2023-12-05T04:12:42.909Z,3.18
2023-12-05T04:14:45.467Z,3.08
2023-12-05T04:16:47.987Z,3.11
2023-12-05T04:18:50.500Z,3.03
2023-12-05T04:20:53.074Z,3.15
2023-12-05T04:22:55.508Z,3.08
2023-12-05T04:24:58.060Z,3.13
2023-12-05T04:27:00.541Z,3.21
2023-12-05T04:29:03.135Z,3.22
2023-12-05T04:31:07.288Z,3.17
2023-12-05T04:33:09.846Z,3.17
2023-12-05T04:35:12.305Z,3.23
2023-12-05T04:37:15.422Z,3.16
2023-12-05T04:39:18.426Z,3.16
2023-12-05T04:41:21.155Z,3.18
2023-12-05T04:43:23.914Z,3.16
2023-12-05T04:45:26.762Z,3.18
2023-12-05T04:47:30.864Z,3.28
2023-12-05T04:49:35.094Z,3.27
2023-12-05T04:51:37.828Z,3.27
2023-12-05T04:53:41.764Z,3.16
2023-12-05T04:55:44.467Z,3.34
2023-12-05T04:57:46.934Z,3.38
2023-12-05T04:59:49.501Z,3.28
2023-12-05T05:01:52.097Z,3.29
2023-12-05T05:03:54.834Z,3.33
2023-12-05T05:05:57.516Z,3.35
2023-12-05T05:08:00.797Z,3.24
2023-12-05T05:10:03.184Z,3.30
2023-12-05T05:12:10.232Z,3.33
2023-12-05T05:14:12.759Z,3.34
2023-12-05T05:16:15.313Z,3.32
2023-12-05T05:18:18.269Z,3.36
2023-12-05T05:20:21.793Z,3.18
2023-12-05T05:22:24.247Z,3.37
2023-12-05T05:24:26.981Z,3.29
2023-12-05T05:26:29.508Z,3.28
2023-12-05T05:28:33.041Z,3.33
2023-12-05T05:30:35.542Z,3.36
2023-12-05T05:32:38.255Z,3.40
2023-12-05T05:34:40.850Z,3.44
2023-12-05T05:36:43.280Z,3.38
2023-12-05T05:38:46.010Z,3.45
2023-12-05T05:40:49.268Z,3.42
2023-12-05T05:42:51.767Z,3.39
2023-12-05T05:44:54.397Z,3.48
2023-12-05T05:46:57.716Z,3.45
2023-12-05T05:49:00.348Z,3.49
2023-12-05T05:51:02.960Z,3.47
2023-12-05T05:53:05.430Z,3.43
2023-12-05T05:55:08.908Z,3.36
2023-12-05T05:57:11.474Z,3.44
2023-12-05T05:59:13.989Z,3.44
2023-12-05T06:01:16.635Z,3.51
2023-12-05T06:03:19.263Z,3.49
2023-12-05T06:05:21.838Z,3.47
2023-12-05T06:07:25.136Z,3.47
2023-12-05T06:09:27.611Z,3.48
2023-12-05T06:11:30.229Z,3.44
2023-12-05T06:13:32.686Z,3.37
2023-12-05T06:15:35.222Z,3.44
2023-12-05T06:17:38.008Z,3.59
2023-12-05T06:19:40.409Z,3.60
2023-12-05T06:21:42.897Z,3.61
2023-12-05T06:23:45.570Z,3.70
2023-12-05T06:25:48.024Z,3.73
2023-12-05T06:27:50.653Z,3.75
2023-12-05T06:29:53.268Z,3.71
2023-12-05T06:31:55.790Z,3.64
2023-12-05T06:33:58.364Z,3.62
2023-12-05T06:36:00.943Z,3.59
2023-12-05T06:38:03.354Z,3.54
2023-12-05T06:40:06.569Z,3.59
2023-12-05T06:42:09.027Z,3.67
2023-12-05T06:44:11.539Z,3.73
2023-12-05T06:46:14.103Z,3.62
2023-12-05T06:48:17.274Z,3.56
2023-12-05T06:50:19.880Z,3.63
2023-12-05T06:52:22.392Z,3.60
2023-12-05T06:54:25.025Z,3.48
2023-12-05T06:56:27.563Z,3.66
2023-12-05T06:58:29.997Z,3.68
2023-12-05T07:00:32.620Z,3.75
2023-12-05T07:02:35.164Z,3.78
2023-12-05T07:04:37.976Z,3.81
2023-12-05T07:06:42.199Z,3.84
2023-12-05T07:08:45.099Z,3.88
2023-12-05T07:10:47.636Z,3.85
2023-12-05T07:12:50.389Z,3.88
2023-12-05T07:14:52.891Z,3.82
2023-12-05T07:16:55.550Z,3.87
2023-12-05T07:18:58.520Z,3.85
2023-12-05T07:21:01.906Z,3.97
2023-12-05T07:23:04.410Z,3.94
2023-12-05T07:25:07.476Z,3.84
2023-12-05T07:27:10.311Z,3.95
2023-12-05T07:29:12.956Z,4.00
2023-12-05T07:31:15.586Z,4.12
2023-12-05T07:33:18.188Z,4.00
2023-12-05T07:35:20.720Z,4.06
2023-12-05T07:37:24.352Z,4.17
2023-12-05T07:39:27.985Z,4.14
2023-12-05T07:41:30.432Z,4.19
2023-12-05T07:43:32.902Z,4.22
2023-12-05T07:45:35.908Z,4.18
2023-12-05T07:47:38.442Z,4.17
2023-12-05T07:49:45.311Z,4.23
2023-12-05T07:51:49.856Z,4.27
2023-12-05T07:53:52.380Z,4.14
2023-12-05T07:55:55.007Z,4.28
2023-12-05T07:57:57.487Z,4.22
2023-12-05T08:00:01.340Z,4.36
2023-12-05T08:02:05.676Z,4.23
2023-12-05T08:04:09.846Z,4.36
2023-12-05T08:06:12.369Z,4.39
2023-12-05T08:08:14.888Z,4.37
2023-12-05T08:10:18.630Z,4.42
2023-12-05T08:12:21.261Z,4.43
2023-12-05T08:14:23.764Z,4.54
2023-12-05T08:16:26.336Z,4.55
2023-12-05T08:18:28.820Z,4.62
2023-12-05T08:20:32.089Z,4.61
2023-12-05T08:22:34.849Z,4.64
2023-12-05T08:24:37.416Z,4.68
2023-12-05T08:26:40.030Z,4.71
2023-12-05T08:28:42.481Z,4.60
2023-12-05T08:30:44.929Z,4.63
2023-12-05T08:32:47.434Z,4.69
2023-12-05T08:34:50.699Z,4.76
2023-12-05T08:36:53.301Z,4.82
2023-12-05T08:38:55.838Z,4.79
2023-12-05T08:40:58.540Z,4.77
2023-12-05T08:43:00.968Z,4.75
2023-12-05T08:45:03.550Z,4.83
2023-12-05T08:47:06.140Z,4.83
2023-12-05T08:49:08.574Z,4.92
2023-12-05T08:51:11.977Z,4.95
2023-12-05T08:53:15.160Z,4.84
2023-12-05T08:55:18.107Z,4.85
2023-12-05T08:57:20.599Z,4.97
2023-12-05T08:59:23.106Z,4.95
2023-12-05T09:01:25.728Z,4.92
2023-12-05T09:03:28.576Z,4.95
2023-12-05T09:05:31.133Z,5.05
2023-12-05T09:07:34.035Z,5.13
2023-12-05T09:09:36.921Z,5.13
2023-12-05T09:11:40.228Z,5.10
2023-12-05T09:13:43.424Z,5.19
2023-12-05T09:15:46.092Z,5.20
2023-12-05T09:17:48.826Z,5.23
2023-12-05T09:19:52.260Z,5.23
2023-12-05T09:21:55.074Z,5.21
2023-12-05T09:23:57.809Z,5.27
2023-12-05T09:26:00.920Z,5.17
2023-12-05T09:28:03.887Z,5.25
2023-12-05T09:30:07.318Z,5.33
2023-12-05T09:32:09.840Z,5.41
2023-12-05T09:34:12.406Z,5.39
2023-12-05T09:36:14.937Z,5.42
2023-12-05T09:38:18.604Z,5.42
2023-12-05T09:40:21.556Z,5.42
2023-12-05T09:42:27.520Z,5.42
2023-12-05T09:44:32.798Z,5.46
2023-12-05T09:46:47.279Z,5.44
2023-12-05T09:48:59.524Z,5.43
2023-12-05T09:51:03.481Z,5.48
2023-12-05T09:53:06.963Z,5.48
2023-12-05T09:55:09.818Z,5.50
2023-12-05T09:57:15.782Z,5.48
2023-12-05T09:59:21.901Z,5.52
2023-12-05T10:01:25.560Z,5.48
2023-12-05T10:03:30.031Z,5.49
2023-12-05T10:05:34.051Z,5.44
2023-12-05T10:07:36.883Z,5.53
2023-12-05T10:09:43.685Z,5.54
2023-12-05T10:11:47.158Z,5.56
2023-12-05T10:13:49.553Z,5.53
2023-12-05T10:15:52.606Z,5.57
2023-12-05T10:17:55.753Z,5.61
2023-12-05T10:19:58.302Z,5.76
2023-12-05T10:22:01.174Z,5.65
2023-12-05T10:24:03.858Z,5.58
2023-12-05T10:26:06.782Z,5.70
2023-12-05T10:28:10.280Z,5.74
2023-12-05T10:30:14.197Z,5.85
2023-12-05T10:32:17.986Z,5.90
2023-12-05T10:34:20.413Z,5.85
2023-12-05T10:36:23.156Z,5.90
2023-12-05T10:38:25.690Z,5.88
2023-12-05T10:40:28.466Z,5.92
2023-12-05T10:42:31.361Z,6.01
2023-12-05T10:44:40.974Z,5.96
2023-12-05T10:46:43.988Z,5.96
2023-12-05T10:48:46.847Z,5.89
2023-12-05T10:50:50.123Z,6.04
2023-12-05T10:52:53.482Z,6.10
2023-12-05T10:55:00.050Z,6.15
2023-12-05T10:57:02.826Z,6.04
2023-12-05T10:59:07.429Z,6.04
2023-12-05T11:01:14.866Z,6.14
2023-12-05T11:03:17.882Z,6.22
2023-12-05T11:05:20.782Z,6.22
2023-12-05T11:07:23.207Z,6.16
2023-12-05T11:09:26.391Z,6.16
2023-12-05T11:11:31.534Z,6.22
2023-12-05T11:13:36.100Z,6.20
2023-12-05T11:15:42.292Z,6.21
2023-12-05T11:17:54.408Z,6.09
2023-12-05T11:20:18.112Z,5.96
2023-12-05T11:22:31.640Z,6.16
2023-12-05T11:24:57.939Z,6.24
2023-12-05T11:27:33.075Z,6.29
2023-12-05T11:29:52.728Z,6.30
2023-12-05T11:32:24.164Z,6.30
2023-12-05T11:34:49.941Z,6.35
2023-12-05T11:37:05.212Z,6.38
2023-12-05T11:39:08.358Z,6.22
2023-12-05T11:41:15.688Z,6.31
2023-12-05T11:43:18.308Z,6.40
2023-12-05T11:45:24.192Z,6.42
2023-12-05T11:47:30.081Z,6.31
2023-12-05T11:49:39.705Z,6.38
2023-12-05T11:51:42.308Z,6.48
2023-12-05T11:53:44.901Z,6.55
2023-12-05T11:55:50.646Z,6.58
2023-12-05T11:57:53.599Z,6.61
2023-12-05T11:59:57.643Z,6.67
2023-12-05T12:02:00.681Z,6.68
2023-12-05T12:04:18.625Z,6.69
2023-12-05T12:06:23.025Z,6.72
2023-12-05T12:08:25.672Z,6.71
2023-12-05T12:10:28.398Z,6.72
2023-12-05T12:12:31.000Z,6.72
2023-12-05T12:14:33.710Z,6.73
2023-12-05T12:16:36.209Z,6.76
2023-12-05T12:18:44.009Z,6.80
2023-12-05T12:20:53.721Z,6.80
2023-12-05T12:22:56.537Z,6.81
2023-12-05T12:25:15.327Z,6.76
2023-12-05T12:27:17.948Z,6.81
2023-12-05T12:29:21.190Z,6.84
2023-12-05T12:31:27.608Z,6.84
2023-12-05T12:33:40.781Z,6.88
2023-12-05T12:35:43.830Z,6.88
2023-12-05T12:37:52.629Z,6.87
2023-12-05T12:39:55.923Z,6.71
2023-12-05T12:41:59.797Z,6.81
2023-12-05T12:44:06.891Z,6.84
2023-12-05T12:46:09.914Z,6.86
2023-12-05T12:48:12.443Z,6.90
2023-12-05T12:50:15.333Z,6.98
2023-12-05T12:52:18.070Z,7.03
2023-12-05T12:54:21.387Z,7.05
2023-12-05T12:56:25.377Z,7.04
2023-12-05T12:58:44.296Z,7.07
2023-12-05T13:00:48.805Z,7.13
2023-12-05T13:02:56.361Z,7.10
2023-12-05T13:04:59.617Z,7.07
2023-12-05T13:07:02.447Z,7.14
2023-12-05T13:09:27.142Z,7.15
2023-12-05T13:11:30.206Z,7.17
2023-12-05T13:13:32.848Z,7.21
2023-12-05T13:15:35.543Z,7.20
2023-12-05T13:17:41.223Z,7.23
2023-12-05T13:19:43.938Z,7.09
2023-12-05T13:21:46.579Z,7.11
2023-12-05T13:23:49.180Z,7.14
2023-12-05T13:25:52.131Z,7.24
2023-12-05T13:27:55.396Z,7.29
2023-12-05T13:29:58.730Z,7.32
2023-12-05T13:32:01.797Z,7.34
2023-12-05T13:34:04.949Z,7.36
2023-12-05T13:36:08.117Z,7.36
2023-12-05T13:38:11.042Z,7.36
2023-12-05T13:40:13.570Z,7.33
2023-12-05T13:42:16.596Z,7.30
2023-12-05T13:44:19.675Z,7.29
2023-12-05T13:46:25.143Z,7.11
2023-12-05T13:48:27.800Z,7.06
2023-12-05T13:50:30.411Z,7.07
2023-12-05T13:52:33.148Z,7.11
2023-12-05T13:54:35.865Z,7.15
2023-12-05T13:56:38.501Z,7.20
2023-12-05T13:58:41.142Z,7.24
2023-12-05T14:00:43.714Z,7.28
2023-12-05T14:02:46.449Z,7.26
2023-12-05T14:04:49.192Z,7.28
2023-12-05T14:06:52.036Z,7.26
2023-12-05T14:08:54.712Z,7.27
2023-12-05T14:10:57.436Z,7.20
2023-12-05T14:13:00.022Z,7.20
2023-12-05T14:15:03.021Z,7.22
2023-12-05T14:17:05.652Z,7.20
2023-12-05T14:19:08.453Z,7.17
2023-12-05T14:21:10.979Z,7.16
2023-12-05T14:23:13.656Z,7.12
2023-12-05T14:25:16.978Z,7.16
2023-12-05T14:27:20.602Z,7.16
2023-12-05T14:29:24.499Z,7.09
2023-12-05T14:31:27.158Z,7.03
2023-12-05T14:33:29.901Z,7.11
2023-12-05T14:35:32.761Z,7.14
2023-12-05T14:37:35.757Z,7.16
2023-12-05T14:39:39.384Z,7.18
2023-12-05T14:41:42.014Z,7.12
2023-12-05T14:43:44.436Z,7.10
2023-12-05T14:45:47.022Z,7.04
2023-12-05T14:47:49.686Z,7.06
2023-12-05T14:49:52.255Z,6.96
2023-12-05T14:51:54.714Z,7.05
2023-12-05T14:53:58.161Z,7.05
2023-12-05T14:56:00.626Z,7.02
2023-12-05T14:58:03.408Z,6.97
2023-12-05T15:00:08.612Z,7.04
2023-12-05T15:02:11.053Z,7.03
2023-12-05T15:04:13.577Z,7.01
2023-12-05T15:06:16.029Z,6.97
2023-12-05T15:08:19.388Z,7.05
2023-12-05T15:10:22.011Z,7.06
2023-12-05T15:12:24.629Z,7.08
2023-12-05T15:14:27.065Z,7.12
2023-12-05T15:16:29.679Z,7.13
2023-12-05T15:18:32.242Z,7.11
2023-12-05T15:20:35.407Z,7.09
2023-12-05T15:22:38.881Z,7.09
2023-12-05T15:24:41.354Z,7.07
2023-12-05T15:26:43.827Z,6.88
2023-12-05T15:28:46.999Z,6.88
2023-12-05T15:30:50.031Z,6.90
2023-12-05T15:32:54.819Z,6.88
2023-12-05T15:34:58.851Z,6.82
2023-12-05T15:37:02.033Z,6.82
2023-12-05T15:39:04.618Z,6.80
2023-12-05T15:41:14.090Z,6.78
2023-12-05T15:43:16.611Z,6.79
2023-12-05T15:45:19.229Z,6.66
2023-12-05T15:47:22.216Z,6.77
2023-12-05T15:49:25.067Z,6.87
2023-12-05T15:51:27.654Z,6.95
2023-12-05T15:53:30.062Z,6.98
2023-12-05T15:55:35.810Z,6.97
2023-12-05T15:57:38.397Z,6.92
2023-12-05T15:59:40.998Z,6.91
2023-12-05T16:01:44.103Z,6.96
2023-12-05T16:03:47.982Z,7.01
2023-12-05T16:05:50.574Z,7.00
2023-12-05T16:07:53.623Z,7.04
2023-12-05T16:09:56.292Z,7.05
2023-12-05T16:11:59.834Z,7.04
2023-12-05T16:14:02.286Z,6.96
2023-12-05T16:16:05.097Z,6.96
2023-12-05T16:18:07.789Z,7.01
2023-12-05T16:20:10.559Z,7.03
2023-12-05T16:22:13.193Z,7.08
2023-12-05T16:24:15.777Z,7.08
2023-12-05T16:26:18.224Z,7.09
2023-12-05T16:28:20.688Z,7.10
2023-12-05T16:30:23.241Z,7.13
2023-12-05T16:32:25.505Z,7.13
2023-12-05T16:34:28.348Z,7.13
2023-12-05T16:36:32.309Z,7.13
2023-12-05T16:38:34.756Z,7.18
2023-12-05T16:40:37.292Z,7.18
2023-12-05T16:42:39.829Z,7.22
2023-12-05T16:44:46.818Z,7.22
2023-12-05T16:46:49.401Z,7.20
2023-12-05T16:48:52.193Z,7.23
2023-12-05T16:50:55.853Z,7.20
2023-12-05T16:52:58.731Z,7.24
2023-12-05T16:55:01.345Z,7.25
2023-12-05T16:57:03.925Z,7.26
2023-12-05T16:59:06.712Z,7.25
2023-12-05T17:01:10.179Z,7.20
2023-12-05T17:03:12.959Z,7.28
2023-12-05T17:05:15.947Z,7.36
2023-12-05T17:07:18.821Z,7.34
2023-12-05T17:09:21.677Z,7.27
2023-12-05T17:11:25.159Z,7.24
2023-12-05T17:13:27.770Z,7.29
2023-12-05T17:15:30.252Z,7.29
2023-12-05T17:17:34.849Z,7.36
2023-12-05T17:19:37.300Z,7.37
2023-12-05T17:21:39.857Z,7.40
2023-12-05T17:23:42.437Z,7.37
2023-12-05T17:25:44.807Z,7.40
2023-12-05T17:27:48.201Z,7.29
2023-12-05T17:29:51.030Z,7.37
2023-12-05T17:31:53.647Z,7.39
2023-12-05T17:33:56.252Z,7.39
2023-12-05T17:35:59.023Z,7.46
2023-12-05T17:38:01.620Z,7.46
2023-12-05T17:40:04.819Z,7.50
2023-12-05T17:42:07.510Z,7.51
2023-12-05T17:44:10.024Z,7.45
2023-12-05T17:46:12.599Z,7.46
2023-12-05T17:48:15.146Z,7.45
2023-12-05T17:50:17.854Z,7.36
2023-12-05T17:52:20.530Z,7.32
2023-12-05T17:54:23.768Z,7.35
2023-12-05T17:56:26.637Z,7.31
2023-12-05T17:58:29.864Z,7.38
2023-12-05T18:00:33.391Z,7.27
2023-12-05T18:02:36.908Z,7.32
2023-12-05T18:04:40.396Z,7.37
2023-12-05T18:06:43.101Z,7.31
2023-12-05T18:08:45.707Z,7.25
2023-12-05T18:10:48.170Z,7.25
2023-12-05T18:12:51.228Z,7.37
2023-12-05T18:14:54.065Z,7.36
2023-12-05T18:16:56.751Z,7.39
2023-12-05T18:19:00.972Z,7.34
2023-12-05T18:21:03.909Z,7.32
2023-12-05T18:23:06.705Z,7.31
2023-12-05T18:25:09.900Z,7.27
2023-12-05T18:27:15.380Z,7.27
2023-12-05T18:29:17.869Z,7.31
2023-12-05T18:31:24.641Z,7.33
2023-12-05T18:33:27.433Z,7.34
2023-12-05T18:35:30.023Z,7.32
2023-12-05T18:37:32.520Z,7.31
2023-12-05T18:39:35.177Z,7.35
2023-12-05T18:41:37.666Z,7.36
2023-12-05T18:43:41.144Z,7.26
2023-12-05T18:45:43.788Z,7.30
2023-12-05T18:47:46.589Z,7.37
2023-12-05T18:49:49.080Z,7.39
2023-12-05T18:51:51.604Z,7.38
2023-12-05T18:53:56.960Z,7.36
2023-12-05T18:56:01.190Z,7.38
2023-12-05T18:58:04.459Z,7.40
2023-12-05T19:00:09.880Z,7.35
2023-12-05T19:02:12.443Z,7.41
2023-12-05T19:04:14.962Z,7.46
2023-12-05T19:06:18.265Z,7.46
2023-12-05T19:08:21.372Z,7.37
2023-12-05T19:10:24.231Z,7.47
2023-12-05T19:12:26.793Z,7.53
2023-12-05T19:14:30.287Z,7.50
2023-12-05T19:16:34.806Z,7.46
2023-12-05T19:18:39.248Z,7.46
2023-12-05T19:20:41.942Z,7.52
2023-12-05T19:22:44.829Z,7.45
2023-12-05T19:24:47.663Z,7.51
2023-12-05T19:26:55.447Z,7.51
2023-12-05T19:28:58.865Z,7.52
2023-12-05T19:31:01.454Z,7.46
2023-12-05T19:33:04.279Z,7.53
2023-12-05T19:35:10.949Z,7.47
2023-12-05T19:37:13.605Z,7.51
2023-12-05T19:39:18.405Z,7.53
2023-12-05T19:41:20.954Z,7.56
2023-12-05T19:43:23.565Z,7.48
2023-12-05T19:45:29.755Z,7.51
2023-12-05T19:47:33.921Z,7.43
2023-12-05T19:49:36.580Z,7.41
2023-12-05T19:51:39.387Z,7.47
2023-12-05T19:53:41.901Z,7.53
2023-12-05T19:55:49.125Z,7.54
2023-12-05T19:57:52.098Z,7.54
2023-12-05T19:59:54.753Z,7.52
2023-12-05T20:01:57.273Z,7.41
2023-12-05T20:03:59.841Z,7.44
2023-12-05T20:06:02.546Z,7.43
2023-12-05T20:08:06.917Z,7.43
2023-12-05T20:10:10.569Z,7.50
2023-12-05T20:12:13.152Z,7.52
2023-12-05T20:14:16.124Z,7.51
2023-12-05T20:16:19.253Z,7.53
2023-12-05T20:18:22.104Z,7.53
2023-12-05T20:20:24.641Z,7.57
2023-12-05T20:22:29.660Z,7.57
2023-12-05T20:24:32.255Z,7.57
2023-12-05T20:26:34.792Z,7.59
2023-12-05T20:28:37.603Z,7.53
2023-12-05T20:30:40.143Z,7.48
2023-12-05T20:32:42.741Z,7.52
2023-12-05T20:34:48.462Z,7.55
2023-12-05T20:36:50.974Z,7.48
2023-12-05T20:38:53.569Z,7.43
2023-12-05T20:41:57.994Z,7.42
2023-12-05T20:44:00.710Z,7.47
2023-12-05T20:46:05.562Z,7.47
2023-12-05T20:48:14.806Z,7.45
2023-12-05T20:50:17.776Z,7.39
2023-12-05T20:52:20.730Z,7.35
2023-12-05T20:54:23.424Z,7.37
2023-12-05T20:56:26.032Z,7.38
2023-12-05T20:58:28.642Z,7.26
2023-12-05T21:00:31.356Z,7.29
2023-12-05T21:02:35.423Z,7.37
2023-12-05T21:04:38.176Z,7.32
2023-12-05T21:06:49.885Z,7.37
2023-12-05T21:09:11.008Z,7.26
2023-12-05T21:11:16.113Z,7.24
2023-12-05T21:13:18.741Z,7.29
2023-12-05T21:15:21.558Z,7.40
2023-12-05T21:17:24.480Z,7.39
2023-12-05T21:19:27.144Z,7.36
2023-12-05T21:21:30.185Z,7.44
2023-12-05T21:23:35.292Z,7.43
2023-12-05T21:25:38.152Z,7.39
2023-12-05T21:27:40.776Z,7.42
2023-12-05T21:29:43.422Z,7.53
2023-12-05T21:31:46.034Z,7.59
2023-12-05T21:33:48.722Z,7.56
2023-12-05T21:35:51.585Z,7.59
2023-12-05T21:37:54.041Z,7.44
2023-12-05T21:39:56.735Z,7.54
2023-12-05T21:41:59.309Z,7.49
2023-12-05T21:44:01.919Z,7.57
2023-12-05T21:46:04.576Z,7.56
2023-12-05T21:48:07.433Z,7.67
2023-12-05T21:50:10.514Z,7.60
2023-12-05T21:52:12.981Z,7.66
2023-12-05T21:54:15.571Z,7.64
2023-12-05T21:56:19.067Z,7.70
2023-12-05T21:58:22.045Z,7.70
2023-12-05T22:00:25.730Z,7.70
2023-12-05T22:02:28.523Z,7.71
2023-12-05T22:04:34.018Z,7.77
2023-12-05T22:06:36.830Z,7.80
2023-12-05T22:08:39.402Z,7.81
2023-12-05T22:10:41.952Z,7.82
2023-12-05T22:12:44.529Z,7.83
2023-12-05T22:14:47.066Z,7.83
2023-12-05T22:16:49.662Z,7.84
2023-12-05T22:18:52.753Z,7.84
2023-12-05T22:20:55.369Z,7.84
2023-12-05T22:22:57.916Z,7.83
2023-12-05T22:25:00.621Z,7.81
2023-12-05T22:27:03.510Z,7.81
2023-12-05T22:29:08.237Z,7.81
2023-12-05T22:31:13.713Z,7.81
2023-12-05T22:33:16.329Z,7.77
2023-12-05T22:35:18.802Z,7.77
2023-12-05T22:37:21.720Z,7.77
2023-12-05T22:39:25.344Z,7.81
2023-12-05T22:41:27.946Z,7.83
2023-12-05T22:43:32.460Z,7.81
2023-12-05T22:45:36.120Z,7.75
2023-12-05T22:47:39.147Z,7.72
2023-12-05T22:49:45.094Z,7.63
2023-12-05T22:51:47.789Z,7.67
2023-12-05T22:53:50.355Z,7.58
2023-12-05T22:55:52.869Z,7.57
2023-12-05T22:57:55.338Z,7.58
2023-12-05T22:59:57.853Z,7.59
2023-12-05T23:02:00.548Z,7.56
2023-12-05T23:04:03.020Z,7.72
2023-12-05T23:06:05.749Z,7.75
2023-12-05T23:08:08.316Z,7.66
2023-12-05T23:10:11.037Z,7.63
2023-12-05T23:12:13.482Z,7.67
2023-12-05T23:14:16.142Z,7.58
2023-12-05T23:16:19.215Z,7.52
2023-12-05T23:18:21.920Z,7.51
2023-12-05T23:20:25.152Z,7.59
2023-12-05T23:22:27.474Z,7.62
2023-12-05T23:24:29.714Z,7.60
2023-12-05T23:26:31.900Z,7.44
2023-12-05T23:28:35.198Z,7.46
2023-12-05T23:30:37.994Z,7.50
2023-12-05T23:32:40.251Z,7.55
2023-12-05T23:34:43.103Z,7.57
2023-12-05T23:36:45.212Z,7.56
2023-12-05T23:38:47.427Z,7.57
2023-12-05T23:40:49.524Z,7.59
2023-12-05T23:42:51.843Z,7.53
2023-12-05T23:44:53.945Z,7.57
2023-12-05T23:46:56.074Z,7.57
2023-12-05T23:48:58.432Z,7.58
2023-12-05T23:51:00.550Z,7.57
2023-12-05T23:53:03.213Z,7.57
2023-12-05T23:55:06.014Z,7.50
2023-12-05T23:57:08.962Z,7.45
2023-12-05T23:59:11.298Z,7.42
